sensor_id;sensor_type;location;lat;lon;timestamp;P1;durP1;ratioP1;P2;durP2;ratioP2
2772;SDS011;1394;47.044;15.744;2022-08-19T00:00:42;7.33;;;4.47;;
2772;SDS011;1394;47.044;15.744;2022-08-19T00:03:10;9.40;;;4.17;;
2772;SDS011;1394;47.044;15.744;2022-08-19T00:05:37;8.73;;;4.30;;
2772;SDS011;1394;47.044;15.744;2022-08-19T00:08:05;10.77;;;5.10;;
2772;SDS011;1394;47.044;15.744;2022-08-19T00:10:32;8.17;;;4.50;;
2772;SDS011;1394;47.044;15.744;2022-08-19T00:13:01;11.20;;;4.27;;
2772;SDS011;1394;47.044;15.744;2022-08-19T00:15:29;8.13;;;4.63;;
2772;SDS011;1394;47.044;15.744;2022-08-19T00:17:56;7.80;;;4.00;;
2772;SDS011;1394;47.044;15.744;2022-08-19T00:20:24;6.23;;;3.80;;
2772;SDS011;1394;47.044;15.744;2022-08-19T00:22:51;7.67;;;4.00;;
2772;SDS011;1394;47.044;15.744;2022-08-19T00:25:21;8.63;;;4.80;;
2772;SDS011;1394;47.044;15.744;2022-08-19T00:27:49;9.90;;;4.60;;
2772;SDS011;1394;47.044;15.744;2022-08-19T00:30:17;13.17;;;4.37;;
2772;SDS011;1394;47.044;15.744;2022-08-19T00:32:45;5.60;;;3.90;;
2772;SDS011;1394;47.044;15.744;2022-08-19T00:35:12;8.93;;;4.17;;
2772;SDS011;1394;47.044;15.744;2022-08-19T00:37:39;10.57;;;4.40;;
2772;SDS011;1394;47.044;15.744;2022-08-19T00:40:09;6.97;;;4.20;;
2772;SDS011;1394;47.044;15.744;2022-08-19T00:42:37;11.83;;;4.50;;
2772;SDS011;1394;47.044;15.744;2022-08-19T00:45:05;9.90;;;4.60;;
2772;SDS011;1394;47.044;15.744;2022-08-19T00:47:37;7.20;;;4.60;;
2772;SDS011;1394;47.044;15.744;2022-08-19T00:50:05;9.40;;;4.50;;
2772;SDS011;1394;47.044;15.744;2022-08-19T00:52:36;10.70;;;4.63;;
2772;SDS011;1394;47.044;15.744;2022-08-19T00:55:05;8.93;;;4.13;;
2772;SDS011;1394;47.044;15.744;2022-08-19T00:57:37;6.73;;;4.10;;
2772;SDS011;1394;47.044;15.744;2022-08-19T01:00:06;9.17;;;4.60;;
2772;SDS011;1394;47.044;15.744;2022-08-19T01:02:34;8.73;;;3.40;;
2772;SDS011;1394;47.044;15.744;2022-08-19T01:05:06;7.00;;;4.33;;
2772;SDS011;1394;47.044;15.744;2022-08-19T01:07:40;7.93;;;4.70;;
2772;SDS011;1394;47.044;15.744;2022-08-19T01:10:10;8.90;;;4.20;;
2772;SDS011;1394;47.044;15.744;2022-08-19T01:12:38;8.20;;;4.03;;
2772;SDS011;1394;47.044;15.744;2022-08-19T01:15:06;10.47;;;4.67;;
2772;SDS011;1394;47.044;15.744;2022-08-19T01:17:34;6.73;;;4.33;;
2772;SDS011;1394;47.044;15.744;2022-08-19T01:20:02;8.10;;;4.27;;
2772;SDS011;1394;47.044;15.744;2022-08-19T01:22:33;8.27;;;3.83;;
2772;SDS011;1394;47.044;15.744;2022-08-19T01:25:02;5.57;;;4.27;;
2772;SDS011;1394;47.044;15.744;2022-08-19T01:27:36;8.40;;;4.47;;
2772;SDS011;1394;47.044;15.744;2022-08-19T01:30:04;10.50;;;4.80;;
2772;SDS011;1394;47.044;15.744;2022-08-19T01:32:33;6.10;;;3.60;;
2772;SDS011;1394;47.044;15.744;2022-08-19T01:35:03;6.67;;;4.03;;
2772;SDS011;1394;47.044;15.744;2022-08-19T01:37:42;10.53;;;4.60;;
2772;SDS011;1394;47.044;15.744;2022-08-19T01:40:10;12.13;;;4.60;;
2772;SDS011;1394;47.044;15.744;2022-08-19T01:42:40;11.00;;;4.50;;
2772;SDS011;1394;47.044;15.744;2022-08-19T01:45:07;7.33;;;4.40;;
2772;SDS011;1394;47.044;15.744;2022-08-19T01:47:35;6.47;;;3.93;;
2772;SDS011;1394;47.044;15.744;2022-08-19T01:50:09;8.57;;;4.80;;
2772;SDS011;1394;47.044;15.744;2022-08-19T01:52:49;12.57;;;5.13;;
2772;SDS011;1394;47.044;15.744;2022-08-19T01:55:20;7.90;;;5.03;;
2772;SDS011;1394;47.044;15.744;2022-08-19T01:57:58;10.03;;;4.90;;
2772;SDS011;1394;47.044;15.744;2022-08-19T02:00:28;7.30;;;4.57;;
2772;SDS011;1394;47.044;15.744;2022-08-19T02:02:56;9.80;;;4.33;;
2772;SDS011;1394;47.044;15.744;2022-08-19T02:05:24;8.93;;;4.43;;
2772;SDS011;1394;47.044;15.744;2022-08-19T02:07:55;8.93;;;4.40;;
2772;SDS011;1394;47.044;15.744;2022-08-19T02:10:25;6.63;;;4.63;;
2772;SDS011;1394;47.044;15.744;2022-08-19T02:12:52;11.13;;;4.80;;
2772;SDS011;1394;47.044;15.744;2022-08-19T02:15:20;8.43;;;3.90;;
2772;SDS011;1394;47.044;15.744;2022-08-19T02:17:47;10.20;;;4.57;;
2772;SDS011;1394;47.044;15.744;2022-08-19T02:20:16;8.00;;;4.40;;
2772;SDS011;1394;47.044;15.744;2022-08-19T02:22:57;7.67;;;4.40;;
2772;SDS011;1394;47.044;15.744;2022-08-19T02:25:27;9.30;;;3.87;;
2772;SDS011;1394;47.044;15.744;2022-08-19T02:27:54;8.97;;;4.70;;
2772;SDS011;1394;47.044;15.744;2022-08-19T02:30:22;7.87;;;4.40;;
2772;SDS011;1394;47.044;15.744;2022-08-19T02:32:49;6.70;;;4.43;;
2772;SDS011;1394;47.044;15.744;2022-08-19T02:35:18;8.13;;;4.37;;
2772;SDS011;1394;47.044;15.744;2022-08-19T02:37:46;9.10;;;4.40;;
2772;SDS011;1394;47.044;15.744;2022-08-19T02:40:33;7.63;;;4.43;;
2772;SDS011;1394;47.044;15.744;2022-08-19T02:43:04;7.90;;;5.00;;
2772;SDS011;1394;47.044;15.744;2022-08-19T02:45:32;9.60;;;4.50;;
2772;SDS011;1394;47.044;15.744;2022-08-19T02:48:00;6.50;;;4.23;;
2772;SDS011;1394;47.044;15.744;2022-08-19T02:50:27;10.87;;;4.67;;
2772;SDS011;1394;47.044;15.744;2022-08-19T02:52:54;6.33;;;4.10;;
2772;SDS011;1394;47.044;15.744;2022-08-19T02:55:22;8.17;;;4.87;;
2772;SDS011;1394;47.044;15.744;2022-08-19T02:57:51;6.70;;;4.13;;
2772;SDS011;1394;47.044;15.744;2022-08-19T03:00:18;10.33;;;4.70;;
2772;SDS011;1394;47.044;15.744;2022-08-19T03:02:46;16.50;;;4.90;;
2772;SDS011;1394;47.044;15.744;2022-08-19T03:05:16;6.60;;;4.97;;
2772;SDS011;1394;47.044;15.744;2022-08-19T03:07:43;8.43;;;4.10;;
2772;SDS011;1394;47.044;15.744;2022-08-19T03:10:11;11.50;;;4.47;;
2772;SDS011;1394;47.044;15.744;2022-08-19T03:12:39;11.40;;;5.70;;
2772;SDS011;1394;47.044;15.744;2022-08-19T03:15:11;12.83;;;8.07;;
2772;SDS011;1394;47.044;15.744;2022-08-19T03:17:39;9.80;;;5.50;;
2772;SDS011;1394;47.044;15.744;2022-08-19T03:20:06;11.27;;;4.83;;
2772;SDS011;1394;47.044;15.744;2022-08-19T03:22:34;5.73;;;4.27;;
2772;SDS011;1394;47.044;15.744;2022-08-19T03:25:01;8.17;;;4.57;;
2772;SDS011;1394;47.044;15.744;2022-08-19T03:27:29;6.37;;;4.60;;
2772;SDS011;1394;47.044;15.744;2022-08-19T03:29:57;8.93;;;4.50;;
2772;SDS011;1394;47.044;15.744;2022-08-19T03:32:28;8.70;;;5.50;;
2772;SDS011;1394;47.044;15.744;2022-08-19T03:34:55;9.17;;;4.83;;
2772;SDS011;1394;47.044;15.744;2022-08-19T03:37:22;6.60;;;4.13;;
2772;SDS011;1394;47.044;15.744;2022-08-19T03:39:53;8.20;;;4.77;;
2772;SDS011;1394;47.044;15.744;2022-08-19T03:42:23;12.60;;;4.50;;
2772;SDS011;1394;47.044;15.744;2022-08-19T03:44:52;9.50;;;5.13;;
2772;SDS011;1394;47.044;15.744;2022-08-19T03:47:19;10.93;;;4.80;;
2772;SDS011;1394;47.044;15.744;2022-08-19T03:49:47;9.30;;;5.03;;
2772;SDS011;1394;47.044;15.744;2022-08-19T03:52:15;8.73;;;4.50;;
2772;SDS011;1394;47.044;15.744;2022-08-19T03:54:43;6.33;;;3.97;;
2772;SDS011;1394;47.044;15.744;2022-08-19T03:57:10;9.53;;;4.90;;
2772;SDS011;1394;47.044;15.744;2022-08-19T03:59:37;7.67;;;4.60;;
2772;SDS011;1394;47.044;15.744;2022-08-19T04:02:06;7.30;;;4.53;;
2772;SDS011;1394;47.044;15.744;2022-08-19T04:04:50;11.70;;;4.20;;
2772;SDS011;1394;47.044;15.744;2022-08-19T04:07:20;7.20;;;5.10;;
2772;SDS011;1394;47.044;15.744;2022-08-19T04:09:47;12.27;;;4.87;;
2772;SDS011;1394;47.044;15.744;2022-08-19T04:12:15;11.80;;;4.70;;
2772;SDS011;1394;47.044;15.744;2022-08-19T04:14:42;8.30;;;4.20;;
2772;SDS011;1394;47.044;15.744;2022-08-19T04:17:10;8.33;;;4.30;;
2772;SDS011;1394;47.044;15.744;2022-08-19T04:19:38;8.97;;;5.13;;
2772;SDS011;1394;47.044;15.744;2022-08-19T04:22:06;10.13;;;5.40;;
2772;SDS011;1394;47.044;15.744;2022-08-19T04:24:34;9.20;;;5.30;;
2772;SDS011;1394;47.044;15.744;2022-08-19T04:27:01;8.87;;;5.50;;
2772;SDS011;1394;47.044;15.744;2022-08-19T04:29:29;11.40;;;5.27;;
2772;SDS011;1394;47.044;15.744;2022-08-19T04:31:57;12.43;;;5.40;;
2772;SDS011;1394;47.044;15.744;2022-08-19T04:34:25;11.00;;;5.40;;
2772;SDS011;1394;47.044;15.744;2022-08-19T04:36:54;14.93;;;5.53;;
2772;SDS011;1394;47.044;15.744;2022-08-19T04:39:24;10.23;;;5.17;;
2772;SDS011;1394;47.044;15.744;2022-08-19T04:42:12;12.30;;;5.53;;
2772;SDS011;1394;47.044;15.744;2022-08-19T04:44:57;11.73;;;5.97;;
2772;SDS011;1394;47.044;15.744;2022-08-19T04:47:24;9.40;;;5.20;;
2772;SDS011;1394;47.044;15.744;2022-08-19T04:49:52;9.30;;;5.20;;
2772;SDS011;1394;47.044;15.744;2022-08-19T04:52:19;10.10;;;5.40;;
2772;SDS011;1394;47.044;15.744;2022-08-19T04:54:48;13.50;;;6.43;;
2772;SDS011;1394;47.044;15.744;2022-08-19T04:57:15;11.00;;;6.07;;
2772;SDS011;1394;47.044;15.744;2022-08-19T04:59:43;12.37;;;5.43;;
2772;SDS011;1394;47.044;15.744;2022-08-19T05:02:10;8.43;;;5.63;;
2772;SDS011;1394;47.044;15.744;2022-08-19T05:04:37;10.10;;;6.10;;
2772;SDS011;1394;47.044;15.744;2022-08-19T05:07:05;12.53;;;6.20;;
2772;SDS011;1394;47.044;15.744;2022-08-19T05:09:34;9.17;;;5.70;;
2772;SDS011;1394;47.044;15.744;2022-08-19T05:12:06;10.70;;;5.77;;
2772;SDS011;1394;47.044;15.744;2022-08-19T05:14:33;9.50;;;6.13;;
2772;SDS011;1394;47.044;15.744;2022-08-19T05:17:01;14.27;;;6.00;;
2772;SDS011;1394;47.044;15.744;2022-08-19T05:19:28;14.07;;;7.03;;
2772;SDS011;1394;47.044;15.744;2022-08-19T05:22:13;24.00;;;7.30;;
2772;SDS011;1394;47.044;15.744;2022-08-19T05:25:02;16.53;;;5.47;;
2772;SDS011;1394;47.044;15.744;2022-08-19T05:27:31;14.90;;;5.93;;
2772;SDS011;1394;47.044;15.744;2022-08-19T05:29:59;12.60;;;5.73;;
2772;SDS011;1394;47.044;15.744;2022-08-19T05:32:26;8.23;;;5.43;;
2772;SDS011;1394;47.044;15.744;2022-08-19T05:34:54;9.00;;;5.47;;
2772;SDS011;1394;47.044;15.744;2022-08-19T05:37:21;12.50;;;5.47;;
2772;SDS011;1394;47.044;15.744;2022-08-19T05:39:52;15.23;;;7.83;;
2772;SDS011;1394;47.044;15.744;2022-08-19T05:42:20;17.97;;;10.13;;
2772;SDS011;1394;47.044;15.744;2022-08-19T05:44:50;9.53;;;6.00;;
2772;SDS011;1394;47.044;15.744;2022-08-19T05:47:17;12.40;;;5.50;;
2772;SDS011;1394;47.044;15.744;2022-08-19T05:49:45;19.50;;;5.60;;
2772;SDS011;1394;47.044;15.744;2022-08-19T05:52:13;12.60;;;6.57;;
2772;SDS011;1394;47.044;15.744;2022-08-19T05:54:41;10.80;;;6.27;;
2772;SDS011;1394;47.044;15.744;2022-08-19T05:57:12;13.93;;;5.60;;
2772;SDS011;1394;47.044;15.744;2022-08-19T05:59:41;13.50;;;5.30;;
2772;SDS011;1394;47.044;15.744;2022-08-19T06:02:14;8.90;;;5.80;;
2772;SDS011;1394;47.044;15.744;2022-08-19T06:04:42;10.50;;;5.70;;
2772;SDS011;1394;47.044;15.744;2022-08-19T06:07:09;11.30;;;7.23;;
2772;SDS011;1394;47.044;15.744;2022-08-19T06:09:36;10.60;;;7.37;;
2772;SDS011;1394;47.044;15.744;2022-08-19T06:12:04;10.27;;;6.17;;
2772;SDS011;1394;47.044;15.744;2022-08-19T06:14:33;8.60;;;5.97;;
2772;SDS011;1394;47.044;15.744;2022-08-19T06:17:00;12.50;;;5.70;;
2772;SDS011;1394;47.044;15.744;2022-08-19T06:19:29;12.33;;;6.60;;
2772;SDS011;1394;47.044;15.744;2022-08-19T06:21:59;13.50;;;6.40;;
2772;SDS011;1394;47.044;15.744;2022-08-19T06:24:27;12.20;;;6.50;;
2772;SDS011;1394;47.044;15.744;2022-08-19T06:29:37;18.10;;;7.53;;
2772;SDS011;1394;47.044;15.744;2022-08-19T06:32:04;17.83;;;6.83;;
2772;SDS011;1394;47.044;15.744;2022-08-19T06:34:33;18.10;;;6.37;;
2772;SDS011;1394;47.044;15.744;2022-08-19T06:37:01;16.70;;;7.27;;
2772;SDS011;1394;47.044;15.744;2022-08-19T06:39:31;12.30;;;7.73;;
2772;SDS011;1394;47.044;15.744;2022-08-19T06:42:00;15.03;;;7.17;;
2772;SDS011;1394;47.044;15.744;2022-08-19T06:44:28;26.77;;;7.63;;
2772;SDS011;1394;47.044;15.744;2022-08-19T06:47:01;13.00;;;7.20;;
2772;SDS011;1394;47.044;15.744;2022-08-19T06:49:29;13.53;;;7.20;;
2772;SDS011;1394;47.044;15.744;2022-08-19T06:51:58;15.17;;;7.67;;
2772;SDS011;1394;47.044;15.744;2022-08-19T06:54:26;12.83;;;7.10;;
2772;SDS011;1394;47.044;15.744;2022-08-19T06:56:54;10.07;;;6.43;;
2772;SDS011;1394;47.044;15.744;2022-08-19T06:59:23;10.10;;;6.00;;
2772;SDS011;1394;47.044;15.744;2022-08-19T07:01:53;11.97;;;7.23;;
2772;SDS011;1394;47.044;15.744;2022-08-19T07:04:22;13.30;;;7.17;;
2772;SDS011;1394;47.044;15.744;2022-08-19T07:06:56;12.07;;;6.80;;
2772;SDS011;1394;47.044;15.744;2022-08-19T07:09:25;9.87;;;7.07;;
2772;SDS011;1394;47.044;15.744;2022-08-19T07:11:53;8.53;;;6.23;;
2772;SDS011;1394;47.044;15.744;2022-08-19T07:14:23;11.07;;;7.27;;
2772;SDS011;1394;47.044;15.744;2022-08-19T07:16:51;14.87;;;7.00;;
2772;SDS011;1394;47.044;15.744;2022-08-19T07:19:20;11.40;;;7.00;;
2772;SDS011;1394;47.044;15.744;2022-08-19T07:21:49;11.07;;;7.40;;
2772;SDS011;1394;47.044;15.744;2022-08-19T07:24:18;20.40;;;7.70;;
2772;SDS011;1394;47.044;15.744;2022-08-19T07:26:47;15.53;;;8.33;;
2772;SDS011;1394;47.044;15.744;2022-08-19T07:29:14;9.50;;;6.70;;
2772;SDS011;1394;47.044;15.744;2022-08-19T07:31:41;9.63;;;6.93;;
2772;SDS011;1394;47.044;15.744;2022-08-19T07:34:09;8.73;;;6.03;;
2772;SDS011;1394;47.044;15.744;2022-08-19T07:36:39;13.60;;;7.73;;
2772;SDS011;1394;47.044;15.744;2022-08-19T07:39:07;12.50;;;7.10;;
2772;SDS011;1394;47.044;15.744;2022-08-19T07:41:35;13.57;;;6.63;;
2772;SDS011;1394;47.044;15.744;2022-08-19T07:44:05;14.70;;;7.20;;
2772;SDS011;1394;47.044;15.744;2022-08-19T07:46:35;11.30;;;6.50;;
2772;SDS011;1394;47.044;15.744;2022-08-19T07:49:03;14.77;;;7.70;;
2772;SDS011;1394;47.044;15.744;2022-08-19T07:51:32;10.53;;;6.47;;
2772;SDS011;1394;47.044;15.744;2022-08-19T07:54:00;13.90;;;6.97;;
2772;SDS011;1394;47.044;15.744;2022-08-19T07:56:28;12.60;;;6.77;;
2772;SDS011;1394;47.044;15.744;2022-08-19T07:58:55;10.43;;;6.43;;
2772;SDS011;1394;47.044;15.744;2022-08-19T08:01:26;11.33;;;6.33;;
2772;SDS011;1394;47.044;15.744;2022-08-19T08:03:55;10.30;;;6.10;;
2772;SDS011;1394;47.044;15.744;2022-08-19T08:06:40;10.03;;;5.40;;
2772;SDS011;1394;47.044;15.744;2022-08-19T08:09:27;10.60;;;5.73;;
2772;SDS011;1394;47.044;15.744;2022-08-19T08:11:56;12.33;;;6.03;;
2772;SDS011;1394;47.044;15.744;2022-08-19T08:14:25;7.77;;;5.17;;
2772;SDS011;1394;47.044;15.744;2022-08-19T08:16:55;8.63;;;5.53;;
2772;SDS011;1394;47.044;15.744;2022-08-19T08:19:24;10.00;;;5.80;;
2772;SDS011;1394;47.044;15.744;2022-08-19T08:21:53;10.00;;;5.40;;
2772;SDS011;1394;47.044;15.744;2022-08-19T08:24:24;11.40;;;5.63;;
2772;SDS011;1394;47.044;15.744;2022-08-19T08:26:51;9.17;;;6.00;;
2772;SDS011;1394;47.044;15.744;2022-08-19T08:29:19;8.70;;;5.77;;
2772;SDS011;1394;47.044;15.744;2022-08-19T08:31:46;8.70;;;6.33;;
2772;SDS011;1394;47.044;15.744;2022-08-19T08:34:15;10.03;;;6.60;;
2772;SDS011;1394;47.044;15.744;2022-08-19T08:36:43;8.30;;;5.40;;
2772;SDS011;1394;47.044;15.744;2022-08-19T08:39:11;9.87;;;5.10;;
2772;SDS011;1394;47.044;15.744;2022-08-19T08:41:41;9.63;;;6.10;;
2772;SDS011;1394;47.044;15.744;2022-08-19T08:44:13;10.20;;;5.30;;
2772;SDS011;1394;47.044;15.744;2022-08-19T08:46:42;9.13;;;6.30;;
2772;SDS011;1394;47.044;15.744;2022-08-19T08:49:16;7.27;;;5.17;;
2772;SDS011;1394;47.044;15.744;2022-08-19T08:51:47;11.07;;;4.93;;
2772;SDS011;1394;47.044;15.744;2022-08-19T08:54:17;10.70;;;5.70;;
2772;SDS011;1394;47.044;15.744;2022-08-19T08:56:45;9.70;;;5.40;;
2772;SDS011;1394;47.044;15.744;2022-08-19T08:59:16;7.80;;;5.50;;
2772;SDS011;1394;47.044;15.744;2022-08-19T09:01:46;8.30;;;4.97;;
2772;SDS011;1394;47.044;15.744;2022-08-19T09:04:16;12.83;;;5.23;;
2772;SDS011;1394;47.044;15.744;2022-08-19T09:06:49;8.33;;;5.70;;
2772;SDS011;1394;47.044;15.744;2022-08-19T09:09:18;8.60;;;5.00;;
2772;SDS011;1394;47.044;15.744;2022-08-19T09:11:49;10.90;;;5.03;;
2772;SDS011;1394;47.044;15.744;2022-08-19T09:14:24;9.27;;;5.57;;
2772;SDS011;1394;47.044;15.744;2022-08-19T09:16:56;11.03;;;6.70;;
2772;SDS011;1394;47.044;15.744;2022-08-19T09:19:25;8.03;;;5.20;;
2772;SDS011;1394;47.044;15.744;2022-08-19T09:21:56;10.40;;;5.90;;
2772;SDS011;1394;47.044;15.744;2022-08-19T09:24:26;8.23;;;5.07;;
2772;SDS011;1394;47.044;15.744;2022-08-19T09:26:53;10.53;;;5.20;;
2772;SDS011;1394;47.044;15.744;2022-08-19T09:29:20;8.57;;;5.37;;
2772;SDS011;1394;47.044;15.744;2022-08-19T09:31:48;9.57;;;5.03;;
2772;SDS011;1394;47.044;15.744;2022-08-19T09:34:16;11.47;;;5.30;;
2772;SDS011;1394;47.044;15.744;2022-08-19T09:36:46;10.07;;;6.03;;
2772;SDS011;1394;47.044;15.744;2022-08-19T09:39:14;9.00;;;5.07;;
2772;SDS011;1394;47.044;15.744;2022-08-19T09:41:41;9.93;;;5.30;;
2772;SDS011;1394;47.044;15.744;2022-08-19T09:44:09;9.40;;;6.23;;
2772;SDS011;1394;47.044;15.744;2022-08-19T09:46:37;10.07;;;5.80;;
2772;SDS011;1394;47.044;15.744;2022-08-19T09:49:05;9.87;;;6.20;;
2772;SDS011;1394;47.044;15.744;2022-08-19T09:51:33;10.63;;;6.80;;
2772;SDS011;1394;47.044;15.744;2022-08-19T09:54:03;15.50;;;6.77;;
2772;SDS011;1394;47.044;15.744;2022-08-19T09:56:31;13.63;;;6.27;;
2772;SDS011;1394;47.044;15.744;2022-08-19T09:58:58;14.03;;;7.20;;
2772;SDS011;1394;47.044;15.744;2022-08-19T10:01:27;10.30;;;6.17;;
2772;SDS011;1394;47.044;15.744;2022-08-19T10:03:56;9.53;;;6.10;;
2772;SDS011;1394;47.044;15.744;2022-08-19T10:06:24;12.97;;;6.60;;
2772;SDS011;1394;47.044;15.744;2022-08-19T10:08:54;8.20;;;5.80;;
2772;SDS011;1394;47.044;15.744;2022-08-19T10:11:23;11.30;;;6.00;;
2772;SDS011;1394;47.044;15.744;2022-08-19T10:13:51;10.53;;;6.37;;
2772;SDS011;1394;47.044;15.744;2022-08-19T10:16:20;9.87;;;6.00;;
2772;SDS011;1394;47.044;15.744;2022-08-19T10:18:47;9.70;;;6.00;;
2772;SDS011;1394;47.044;15.744;2022-08-19T10:21:16;10.53;;;6.50;;
2772;SDS011;1394;47.044;15.744;2022-08-19T10:23:44;8.33;;;5.40;;
2772;SDS011;1394;47.044;15.744;2022-08-19T10:26:12;12.53;;;6.27;;
2772;SDS011;1394;47.044;15.744;2022-08-19T10:28:41;9.10;;;6.63;;
2772;SDS011;1394;47.044;15.744;2022-08-19T10:31:09;9.70;;;6.57;;
2772;SDS011;1394;47.044;15.744;2022-08-19T10:33:37;8.93;;;5.70;;
2772;SDS011;1394;47.044;15.744;2022-08-19T10:36:06;11.47;;;6.07;;
2772;SDS011;1394;47.044;15.744;2022-08-19T10:38:33;9.23;;;5.83;;
2772;SDS011;1394;47.044;15.744;2022-08-19T10:41:10;11.33;;;5.87;;
2772;SDS011;1394;47.044;15.744;2022-08-19T10:43:37;11.10;;;6.17;;
2772;SDS011;1394;47.044;15.744;2022-08-19T10:46:13;9.60;;;5.90;;
2772;SDS011;1394;47.044;15.744;2022-08-19T10:48:41;11.60;;;6.87;;
2772;SDS011;1394;47.044;15.744;2022-08-19T10:51:09;13.10;;;6.30;;
2772;SDS011;1394;47.044;15.744;2022-08-19T10:53:54;9.13;;;5.40;;
2772;SDS011;1394;47.044;15.744;2022-08-19T10:56:22;13.00;;;6.33;;
2772;SDS011;1394;47.044;15.744;2022-08-19T10:59:07;12.47;;;7.00;;
2772;SDS011;1394;47.044;15.744;2022-08-19T11:01:37;9.67;;;7.00;;
2772;SDS011;1394;47.044;15.744;2022-08-19T11:04:04;9.07;;;6.60;;
2772;SDS011;1394;47.044;15.744;2022-08-19T11:06:34;10.03;;;5.60;;
2772;SDS011;1394;47.044;15.744;2022-08-19T11:09:01;9.63;;;5.47;;
2772;SDS011;1394;47.044;15.744;2022-08-19T11:11:29;9.60;;;6.07;;
2772;SDS011;1394;47.044;15.744;2022-08-19T11:16:44;13.40;;;5.20;;
2772;SDS011;1394;47.044;15.744;2022-08-19T11:19:12;9.53;;;5.50;;
2772;SDS011;1394;47.044;15.744;2022-08-19T11:21:43;7.27;;;5.30;;
2772;SDS011;1394;47.044;15.744;2022-08-19T11:24:12;10.30;;;6.13;;
2772;SDS011;1394;47.044;15.744;2022-08-19T11:26:43;10.43;;;5.63;;
2772;SDS011;1394;47.044;15.744;2022-08-19T11:29:13;10.87;;;5.43;;
2772;SDS011;1394;47.044;15.744;2022-08-19T11:31:43;8.67;;;5.53;;
2772;SDS011;1394;47.044;15.744;2022-08-19T11:34:11;9.67;;;5.60;;
2772;SDS011;1394;47.044;15.744;2022-08-19T11:36:40;13.90;;;5.17;;
2772;SDS011;1394;47.044;15.744;2022-08-19T11:39:09;8.60;;;5.67;;
2772;SDS011;1394;47.044;15.744;2022-08-19T11:41:37;11.10;;;5.87;;
2772;SDS011;1394;47.044;15.744;2022-08-19T11:44:04;10.80;;;6.13;;
2772;SDS011;1394;47.044;15.744;2022-08-19T11:46:33;10.03;;;5.43;;
2772;SDS011;1394;47.044;15.744;2022-08-19T11:49:03;9.30;;;5.27;;
2772;SDS011;1394;47.044;15.744;2022-08-19T11:51:32;8.83;;;6.37;;
2772;SDS011;1394;47.044;15.744;2022-08-19T11:54:00;16.97;;;5.90;;
2772;SDS011;1394;47.044;15.744;2022-08-19T11:56:27;9.63;;;5.47;;
2772;SDS011;1394;47.044;15.744;2022-08-19T11:58:55;14.17;;;6.00;;
2772;SDS011;1394;47.044;15.744;2022-08-19T12:01:24;8.83;;;5.20;;
2772;SDS011;1394;47.044;15.744;2022-08-19T12:03:52;9.40;;;5.10;;
2772;SDS011;1394;47.044;15.744;2022-08-19T12:06:22;9.40;;;5.07;;
2772;SDS011;1394;47.044;15.744;2022-08-19T12:08:50;10.10;;;5.97;;
2772;SDS011;1394;47.044;15.744;2022-08-19T12:11:18;12.03;;;5.57;;
2772;SDS011;1394;47.044;15.744;2022-08-19T12:13:59;8.07;;;4.90;;
2772;SDS011;1394;47.044;15.744;2022-08-19T12:16:28;13.27;;;6.57;;
2772;SDS011;1394;47.044;15.744;2022-08-19T12:18:57;9.37;;;5.20;;
2772;SDS011;1394;47.044;15.744;2022-08-19T12:21:30;11.57;;;5.17;;
2772;SDS011;1394;47.044;15.744;2022-08-19T12:24:11;7.80;;;5.00;;
2772;SDS011;1394;47.044;15.744;2022-08-19T12:26:39;13.23;;;5.57;;
2772;SDS011;1394;47.044;15.744;2022-08-19T12:29:07;7.70;;;4.90;;
2772;SDS011;1394;47.044;15.744;2022-08-19T12:31:35;11.43;;;5.20;;
2772;SDS011;1394;47.044;15.744;2022-08-19T12:34:02;8.53;;;4.60;;
2772;SDS011;1394;47.044;15.744;2022-08-19T12:36:31;11.07;;;4.80;;
2772;SDS011;1394;47.044;15.744;2022-08-19T12:38:58;9.73;;;4.77;;
2772;SDS011;1394;47.044;15.744;2022-08-19T12:41:26;17.30;;;4.50;;
2772;SDS011;1394;47.044;15.744;2022-08-19T12:44:07;9.30;;;4.10;;
2772;SDS011;1394;47.044;15.744;2022-08-19T12:46:35;6.43;;;3.70;;
2772;SDS011;1394;47.044;15.744;2022-08-19T12:49:03;8.73;;;4.10;;
2772;SDS011;1394;47.044;15.744;2022-08-19T12:51:31;8.43;;;4.30;;
2772;SDS011;1394;47.044;15.744;2022-08-19T12:53:59;7.37;;;3.10;;
2772;SDS011;1394;47.044;15.744;2022-08-19T12:56:27;6.63;;;3.13;;
2772;SDS011;1394;47.044;15.744;2022-08-19T12:58:54;8.63;;;4.10;;
2772;SDS011;1394;47.044;15.744;2022-08-19T13:01:21;11.23;;;4.00;;
2772;SDS011;1394;47.044;15.744;2022-08-19T13:03:50;8.47;;;3.60;;
2772;SDS011;1394;47.044;15.744;2022-08-19T13:06:18;9.87;;;2.73;;
2772;SDS011;1394;47.044;15.744;2022-08-19T13:08:50;8.93;;;2.60;;
2772;SDS011;1394;47.044;15.744;2022-08-19T13:11:18;8.97;;;3.50;;
2772;SDS011;1394;47.044;15.744;2022-08-19T13:13:49;7.57;;;3.67;;
2772;SDS011;1394;47.044;15.744;2022-08-19T13:16:18;10.27;;;3.77;;
2772;SDS011;1394;47.044;15.744;2022-08-19T13:18:47;7.17;;;3.10;;
2772;SDS011;1394;47.044;15.744;2022-08-19T13:21:16;8.97;;;3.57;;
2772;SDS011;1394;47.044;15.744;2022-08-19T13:23:46;6.03;;;2.80;;
2772;SDS011;1394;47.044;15.744;2022-08-19T13:26:15;7.43;;;3.40;;
2772;SDS011;1394;47.044;15.744;2022-08-19T13:28:43;11.00;;;3.60;;
2772;SDS011;1394;47.044;15.744;2022-08-19T13:31:29;7.40;;;3.23;;
2772;SDS011;1394;47.044;15.744;2022-08-19T13:34:14;9.07;;;3.60;;
2772;SDS011;1394;47.044;15.744;2022-08-19T13:36:42;6.30;;;3.47;;
2772;SDS011;1394;47.044;15.744;2022-08-19T13:39:09;7.30;;;3.20;;
2772;SDS011;1394;47.044;15.744;2022-08-19T13:41:42;9.30;;;3.40;;
2772;SDS011;1394;47.044;15.744;2022-08-19T13:44:13;6.87;;;3.20;;
2772;SDS011;1394;47.044;15.744;2022-08-19T13:46:43;8.77;;;3.17;;
2772;SDS011;1394;47.044;15.744;2022-08-19T13:49:10;5.37;;;3.00;;
2772;SDS011;1394;47.044;15.744;2022-08-19T13:51:40;9.37;;;2.80;;
2772;SDS011;1394;47.044;15.744;2022-08-19T13:54:07;10.10;;;3.50;;
2772;SDS011;1394;47.044;15.744;2022-08-19T13:56:38;9.83;;;3.43;;
2772;SDS011;1394;47.044;15.744;2022-08-19T13:59:07;8.50;;;3.37;;
2772;SDS011;1394;47.044;15.744;2022-08-19T14:01:35;8.30;;;3.13;;
2772;SDS011;1394;47.044;15.744;2022-08-19T14:04:03;10.73;;;2.87;;
2772;SDS011;1394;47.044;15.744;2022-08-19T14:06:30;7.77;;;3.47;;
2772;SDS011;1394;47.044;15.744;2022-08-19T14:08:58;10.00;;;3.77;;
2772;SDS011;1394;47.044;15.744;2022-08-19T14:11:27;7.50;;;3.27;;
2772;SDS011;1394;47.044;15.744;2022-08-19T14:13:55;5.83;;;2.70;;
2772;SDS011;1394;47.044;15.744;2022-08-19T14:16:25;13.23;;;3.47;;
2772;SDS011;1394;47.044;15.744;2022-08-19T14:18:52;7.30;;;3.27;;
2772;SDS011;1394;47.044;15.744;2022-08-19T14:21:20;6.37;;;2.60;;
2772;SDS011;1394;47.044;15.744;2022-08-19T14:23:48;8.60;;;3.07;;
2772;SDS011;1394;47.044;15.744;2022-08-19T14:26:16;8.70;;;3.10;;
2772;SDS011;1394;47.044;15.744;2022-08-19T14:28:44;7.27;;;3.20;;
2772;SDS011;1394;47.044;15.744;2022-08-19T14:31:12;8.23;;;2.80;;
2772;SDS011;1394;47.044;15.744;2022-08-19T14:33:43;8.10;;;3.10;;
2772;SDS011;1394;47.044;15.744;2022-08-19T14:36:11;9.53;;;3.50;;
2772;SDS011;1394;47.044;15.744;2022-08-19T14:38:38;9.73;;;3.30;;
2772;SDS011;1394;47.044;15.744;2022-08-19T14:41:06;8.73;;;2.80;;
2772;SDS011;1394;47.044;15.744;2022-08-19T14:43:34;8.77;;;3.03;;
2772;SDS011;1394;47.044;15.744;2022-08-19T14:46:01;8.97;;;3.10;;
2772;SDS011;1394;47.044;15.744;2022-08-19T14:48:28;6.47;;;2.83;;
2772;SDS011;1394;47.044;15.744;2022-08-19T14:50:57;9.63;;;3.00;;
2772;SDS011;1394;47.044;15.744;2022-08-19T14:53:24;8.93;;;2.93;;
2772;SDS011;1394;47.044;15.744;2022-08-19T14:55:52;6.30;;;2.77;;
2772;SDS011;1394;47.044;15.744;2022-08-19T14:58:19;9.50;;;2.80;;
2772;SDS011;1394;47.044;15.744;2022-08-19T15:00:47;9.00;;;2.77;;
2772;SDS011;1394;47.044;15.744;2022-08-19T15:03:15;9.17;;;2.60;;
2772;SDS011;1394;47.044;15.744;2022-08-19T15:05:42;7.87;;;2.83;;
2772;SDS011;1394;47.044;15.744;2022-08-19T15:08:11;9.90;;;3.47;;
2772;SDS011;1394;47.044;15.744;2022-08-19T15:10:38;8.37;;;2.70;;
2772;SDS011;1394;47.044;15.744;2022-08-19T15:13:06;8.33;;;2.77;;